Hector International Airport
KFAR : now visible

Airfield :











YOU CAN JOIN US ON...

 
LOGIN :

Register | Disclaimer

   EN    FR    IT 

 









Legend :    VFR   Marginal VFR   IFR   Intensive IFR   Very Intensive IFR
Visi :
Ceiling :
>= 8 km
>= 3000ft
5 to 8 km
1000 to 3000 ft
1500m to 5 km
500 to 1000 ft
800 to 1500m
200 to 500 ft
< 800m
< 200 ft
Symbols :   Thunderstorms  Fog  Heavy snow  Heavy precipitations  Wind > 20 kt






- Airport Elevation : 902 ft
- IATA code : FAR


KFAR - Hector International

CURRENT METAR :
  • 081853Z 29023G29KT 10SM SCT043 OVC060 08/M01 A2992 RMK AO2 PK WND 31031/1822 SLP141 T00781011

EXPIRED METARs :
  • 081753Z 31020G30KT 10SM BKN044 07/M02 A2993 RMK AO2 PK WND 31030/1745 SLP145 T00721017 10078 20022 50002
  • 081653Z 29018KT 10SM CLR 07/M01 A2994 RMK AO2 PK WND 28029/1642 SLP147 T00721006

TAF KFAR
Valid from the 08 at 18:00 until the 09 at 18:00 UTC


081736Z 0818/0918 30018G26KT P6SM SCT050
FM082100 30023G35KT P6SM VCSH BKN050
FM090200 31012KT P6SM SCT100
FM091500 33019G27KT P6SM BKN035



MET'MAP, your aeronautical weather chart ! - Copyright ORBIFLY December 2007 - Disclaimer

ORBIFLY MET'MAP TEAM :

Programming & Development : Alexandra Zaïnal
Concept & original design : Baudouin d'Aumeries
Assistance for programming : Marc-Olivier Méhu
Technical & hardware support : Manuel Goepfert

Contact : metmap@orbifly.com




SOURCES & CREDITS :

   NOAA       Earth
Advisory